MSC Levina — 3FJR8 — position and weather

sailwx.info

Track history (hours):
 
Tides and Currents Weather Stations Pressure Air Temp Water Temp Dewpoint Dewpoint Depression Visibility Wind Speed Wind Dir Waves Ship Positions

MSC Levina

Last reported at 2017-Jan-15 10:26 UTC. Time now 2017-Jan-20 16:11 UTC.
Position N 35°04' E 139°43'.

Length 227.6 m; beam 32.2 m; draft 12.1 m.

Type: Ship. MMSI: 355609000.

Date/timePositionNaut miles runAvg speedWind from/ knotsBaromVisibWave heightAir tempDewpointWater temp
2017-Jan-15 10:26N 35°04' E 139°43'1011.2
2017-Jan-15 09:34N 35°13' E 139°46'1211.6
2017-Jan-15 08:33N 35°24' E 139°43'4 3.5
2017-Jan-15 07:33N 35°28' E 139°42'0 0.0
2017-Jan-15 06:33N 35°28' E 139°42'0 0.0
2017-Jan-15 05:33N 35°28' E 139°42'0 0.0
2017-Jan-15 04:33N 35°28' E 139°42'0 0.0
2017-Jan-15 03:33N 35°28' E 139°42'0 0.0
2017-Jan-15 02:33N 35°28' E 139°42'0 0.0
2017-Jan-15 01:33N 35°28' E 139°42'0 0.0
2017-Jan-15 00:33N 35°28' E 139°42'0 0.0
2017-Jan-14 23:33N 35°28' E 139°42'0 0.1
2017-Jan-14 22:33N 35°28' E 139°42'2 2.4
2017-Jan-14 21:31N 35°27' E 139°44'0 0.1
2017-Jan-14 20:31N 35°27' E 139°44'0 0.0
2017-Jan-14 19:31N 35°27' E 139°44'0 0.0
2017-Jan-14 18:31N 35°27' E 139°44'0 0.1
2017-Jan-14 17:31N 35°26' E 139°44'0 0.0
2017-Jan-14 16:31N 35°26' E 139°44'0 0.1
2017-Jan-14 15:28N 35°26' E 139°44'0 0.1
2017-Jan-14 14:31N 35°26' E 139°44'0 0.0
2017-Jan-14 13:31N 35°26' E 139°44'0 0.0
2017-Jan-14 12:31N 35°26' E 139°44'0 0.0
2017-Jan-14 11:31N 35°26' E 139°44'0 0.3
2017-Jan-14 10:33N 35°26' E 139°44'9 8.5
2017-Jan-14 09:33N 35°33' E 139°50'4 3.9
2017-Jan-14 08:29N 35°37' E 139°47'0 0.0
2017-Jan-14 07:32N 35°37' E 139°47'0 0.0
2017-Jan-14 06:32N 35°37' E 139°47'0 0.0
2017-Jan-14 05:32N 35°37' E 139°47'0 0.0
2017-Jan-14 04:29N 35°37' E 139°47'0 0.0
2017-Jan-14 03:32N 35°37' E 139°47'0 0.0
2017-Jan-13 23:32N 35°37' E 139°47'0 0.0
2017-Jan-13 22:32N 35°37' E 139°47'3 3.3
2017-Jan-13 21:33N 35°34' E 139°49'9 9.4
2017-Jan-13 20:33N 35°25' E 139°47'1111.3
2017-Jan-13 19:33N 35°13' E 139°47'8 8.5
2017-Jan-13 18:33N 35°05' E 139°47'7 6.8
2017-Jan-13 17:33N 35°00' E 139°41'  
2017-Jan-05 10:33N 34°05' E 134°57'  
Track history (hours):
 
Tides and Currents Weather Stations Pressure Air Temp Water Temp Dewpoint Dewpoint Depression Visibility Wind Speed Wind Dir Waves Ship Positions

MSC Levina

Last reported at 2017-Jan-15 10:26 UTC. Time now 2017-Jan-20 16:11 UTC.
Position N 35°04' E 139°43'.

Length 227.6 m; beam 32.2 m; draft 12.1 m.

Type: Ship. MMSI: 355609000.

Date/timePositionNaut miles runAvg speedWind from/ knotsBaromVisibWave heightAir tempDewpointWater temp
2017-Jan-15 10:26N 35°04' E 139°43'1011.2
2017-Jan-15 09:34N 35°13' E 139°46'1211.6
2017-Jan-15 08:33N 35°24' E 139°43'4 3.5
2017-Jan-15 07:33N 35°28' E 139°42'0 0.0
2017-Jan-15 06:33N 35°28' E 139°42'0 0.0
2017-Jan-15 05:33N 35°28' E 139°42'0 0.0
2017-Jan-15 04:33N 35°28' E 139°42'0 0.0
2017-Jan-15 03:33N 35°28' E 139°42'0 0.0
2017-Jan-15 02:33N 35°28' E 139°42'0 0.0
2017-Jan-15 01:33N 35°28' E 139°42'0 0.0
2017-Jan-15 00:33N 35°28' E 139°42'0 0.0
2017-Jan-14 23:33N 35°28' E 139°42'0 0.1
2017-Jan-14 22:33N 35°28' E 139°42'2 2.4
2017-Jan-14 21:31N 35°27' E 139°44'0 0.1
2017-Jan-14 20:31N 35°27' E 139°44'0 0.0
2017-Jan-14 19:31N 35°27' E 139°44'0 0.0
2017-Jan-14 18:31N 35°27' E 139°44'0 0.1
2017-Jan-14 17:31N 35°26' E 139°44'0 0.0
2017-Jan-14 16:31N 35°26' E 139°44'0 0.1
2017-Jan-14 15:28N 35°26' E 139°44'0 0.1
2017-Jan-14 14:31N 35°26' E 139°44'0 0.0
2017-Jan-14 13:31N 35°26' E 139°44'0 0.0
2017-Jan-14 12:31N 35°26' E 139°44'0 0.0
2017-Jan-14 11:31N 35°26' E 139°44'0 0.3
2017-Jan-14 10:33N 35°26' E 139°44'9 8.5
2017-Jan-14 09:33N 35°33' E 139°50'4 3.9
2017-Jan-14 08:29N 35°37' E 139°47'0 0.0
2017-Jan-14 07:32N 35°37' E 139°47'0 0.0
2017-Jan-14 06:32N 35°37' E 139°47'0 0.0
2017-Jan-14 05:32N 35°37' E 139°47'0 0.0
2017-Jan-14 04:29N 35°37' E 139°47'0 0.0
2017-Jan-14 03:32N 35°37' E 139°47'0 0.0
2017-Jan-13 23:32N 35°37' E 139°47'0 0.0
2017-Jan-13 22:32N 35°37' E 139°47'3 3.3
2017-Jan-13 21:33N 35°34' E 139°49'9 9.4
2017-Jan-13 20:33N 35°25' E 139°47'1111.3
2017-Jan-13 19:33N 35°13' E 139°47'8 8.5
2017-Jan-13 18:33N 35°05' E 139°47'7 6.8
2017-Jan-13 17:33N 35°00' E 139°41'  
2017-Jan-05 10:33N 34°05' E 134°57'  

Dump ship's entire track history